createdAt,value
2019-05-15T00:08:09.155Z,31.20
2019-05-15T00:18:18.372Z,36.50
2019-05-15T00:28:24.312Z,30.23
2019-05-15T00:38:30.632Z,38.53
2019-05-15T00:48:39.488Z,34.77
2019-05-15T00:58:44.858Z,31.03
2019-05-15T01:08:50.742Z,36.77
2019-05-15T01:18:58.584Z,33.73
2019-05-15T01:29:04.812Z,36.60
2019-05-15T01:39:12.425Z,30.73
2019-05-15T01:49:19.031Z,34.47
2019-05-15T01:59:28.314Z,35.70
2019-05-15T02:09:33.739Z,36.47
2019-05-15T02:19:39.957Z,32.97
2019-05-15T02:29:46.329Z,38.97
2019-05-15T02:39:52.279Z,41.00
2019-05-15T02:49:59.312Z,48.20
2019-05-15T03:00:10.334Z,46.37
2019-05-15T03:10:19.788Z,36.40
2019-05-15T03:20:25.195Z,40.53
2019-05-15T03:30:35.132Z,47.33
2019-05-15T03:40:40.330Z,40.27
2019-05-15T03:50:48.890Z,44.37
2019-05-15T04:01:00.223Z,34.87
2019-05-15T04:11:09.129Z,36.77
2019-05-15T04:21:20.043Z,45.70
2019-05-15T04:31:25.761Z,42.87
2019-05-15T04:41:35.115Z,41.17
2019-05-15T04:51:42.451Z,43.80
2019-05-15T05:01:53.231Z,39.83
2019-05-15T05:11:58.265Z,37.90
2019-05-15T05:22:07.810Z,33.33
2019-05-15T05:32:31.297Z,30.10
2019-05-15T05:42:29.008Z,28.00
2019-05-15T05:52:35.459Z,23.50
2019-05-15T06:02:47.745Z,31.30
2019-05-15T06:12:50.540Z,28.10
2019-05-15T06:22:58.036Z,28.53
2019-05-15T06:33:13.243Z,27.33
2019-05-15T06:43:19.250Z,26.57
2019-05-15T06:53:28.871Z,23.70
2019-05-15T07:03:35.743Z,24.80
2019-05-15T07:13:42.985Z,21.67
2019-05-15T07:23:49.950Z,20.47
2019-05-15T07:33:56.250Z,27.30
2019-05-15T07:44:03.701Z,17.63
2019-05-15T07:54:12.345Z,21.57
2019-05-15T08:04:28.704Z,20.10
2019-05-15T08:14:28.900Z,21.47
2019-05-15T08:24:35.112Z,19.10
2019-05-15T08:34:43.408Z,17.07
2019-05-15T08:44:51.591Z,17.40
2019-05-15T08:54:59.283Z,18.90
2019-05-15T09:05:08.588Z,20.63
2019-05-15T09:15:18.477Z,17.60
2019-05-15T09:25:28.792Z,19.33
2019-05-15T09:35:36.791Z,17.77
2019-05-15T09:45:44.488Z,24.00
2019-05-15T09:55:53.072Z,16.77
2019-05-15T10:06:03.630Z,20.33
2019-05-15T10:16:11.265Z,17.63
2019-05-15T10:26:19.061Z,21.43
2019-05-15T10:36:24.197Z,14.13
2019-05-15T10:46:30.509Z,11.20
2019-05-15T10:56:41.161Z,9.53
2019-05-15T11:06:52.227Z,9.17
2019-05-15T11:16:59.482Z,9.50
2019-05-15T11:27:10.072Z,14.10
2019-05-15T11:37:18.957Z,13.60
2019-05-15T11:47:42.259Z,15.30
2019-05-15T11:57:55.632Z,15.20
2019-05-15T12:08:02.244Z,13.80
2019-05-15T12:18:09.042Z,14.20
2019-05-15T12:28:17.859Z,12.07
2019-05-15T12:38:39.731Z,12.13
2019-05-15T13:09:04.811Z,12.63
2019-05-15T13:19:11.636Z,9.83
2019-05-15T13:29:18.192Z,15.60
2019-05-15T13:39:24.923Z,10.60
2019-05-15T13:49:33.484Z,10.47
2019-05-15T13:59:40.629Z,6.77
2019-05-15T14:09:48.295Z,11.17
2019-05-15T14:19:57.934Z,10.83
2019-05-15T14:30:08.903Z,12.57
2019-05-15T14:40:20.086Z,23.00
2019-05-15T14:50:29.418Z,12.67
2019-05-15T15:00:41.282Z,14.47
2019-05-15T15:10:50.555Z,14.20
2019-05-15T15:20:58.051Z,18.90
2019-05-15T15:31:14.408Z,15.77
2019-05-15T15:41:20.201Z,18.23
2019-05-15T15:51:28.432Z,24.37
2019-05-15T16:01:38.928Z,28.47
2019-05-15T16:11:45.284Z,30.93
2019-05-15T16:21:53.202Z,33.13
2019-05-15T16:32:02.254Z,35.50
2019-05-15T16:42:08.279Z,34.17
2019-05-15T16:52:14.561Z,54.43
2019-05-15T17:02:21.101Z,63.90
2019-05-15T17:12:28.387Z,59.00
2019-05-15T17:22:37.932Z,76.30
2019-05-15T17:32:49.062Z,75.27
2019-05-15T17:42:54.034Z,72.00
2019-05-15T17:53:01.296Z,65.70
2019-05-15T18:03:08.704Z,71.87
2019-05-15T18:13:14.923Z,69.00
2019-05-15T18:23:23.517Z,75.77
2019-05-15T18:33:28.906Z,78.60
2019-05-15T18:43:37.756Z,79.03
2019-05-15T18:53:48.143Z,79.03
2019-05-15T19:03:54.534Z,80.03
2019-05-15T19:14:10.453Z,79.77
2019-05-15T19:24:18.489Z,80.50
2019-05-15T19:34:28.169Z,73.40
2019-05-15T19:44:38.001Z,74.13
2019-05-15T19:54:48.127Z,73.23
2019-05-15T20:04:55.699Z,80.57
2019-05-15T20:15:01.804Z,75.87
2019-05-15T20:25:09.111Z,73.53
2019-05-15T20:35:15.994Z,76.23
2019-05-15T20:45:23.424Z,67.37
2019-05-15T20:55:29.003Z,74.13
2019-05-15T21:05:34.803Z,75.67
2019-05-15T21:15:41.140Z,67.87
2019-05-15T21:25:52.059Z,67.13
2019-05-15T21:35:58.365Z,68.83
2019-05-15T21:46:04.634Z,73.10
2019-05-15T21:56:10.720Z,63.57
2019-05-15T22:06:18.544Z,64.77
2019-05-15T22:16:25.740Z,61.27
2019-05-15T22:26:32.703Z,60.37
2019-05-15T22:36:38.970Z,56.00
2019-05-15T22:46:45.698Z,58.67
2019-05-15T22:56:51.479Z,57.07
2019-05-15T23:06:57.681Z,54.63
2019-05-15T23:17:03.986Z,52.40
2019-05-15T23:27:10.308Z,53.97
2019-05-15T23:37:22.989Z,50.77
2019-05-15T23:47:29.495Z,44.13
2019-05-15T23:57:35.879Z,41.57
